createdAt,value
2019-04-04T00:04:08.341Z,94704.00
2019-04-04T00:09:11.074Z,94702.00
2019-04-04T00:14:13.567Z,94697.00
2019-04-04T00:19:16.084Z,94691.00
2019-04-04T00:24:18.471Z,94699.00
2019-04-04T00:29:20.955Z,94698.00
2019-04-04T00:34:23.780Z,94689.00
2019-04-04T00:39:26.311Z,94712.00
2019-04-04T00:44:28.955Z,94703.00
2019-04-04T00:49:35.398Z,94708.00
2019-04-04T00:54:36.889Z,94694.00
2019-04-04T00:59:39.291Z,94690.00
2019-04-04T01:04:42.606Z,94692.00
2019-04-04T01:09:45.885Z,94690.00
2019-04-04T01:14:49.639Z,94691.00
2019-04-04T01:19:52.215Z,94683.00
2019-04-04T01:24:54.723Z,94680.00
2019-04-04T01:29:57.159Z,94681.00
2019-04-04T01:34:59.898Z,94658.00
2019-04-04T01:40:02.861Z,94658.00
2019-04-04T01:45:07.258Z,94649.00
2019-04-04T01:50:09.679Z,94647.00
2019-04-04T01:55:12.000Z,94648.00
2019-04-04T02:00:15.158Z,94624.00
2019-04-04T02:05:18.491Z,94622.00
2019-04-04T02:10:21.036Z,94580.00
2019-04-04T02:15:23.799Z,94607.00
2019-04-04T02:20:26.947Z,94611.00
2019-04-04T02:25:30.031Z,94602.00
2019-04-04T02:30:32.333Z,94606.00
2019-04-04T02:35:34.688Z,94590.00
2019-04-04T02:40:40.864Z,94570.00
2019-04-04T02:45:42.265Z,94577.00
2019-04-04T02:50:44.748Z,94573.00
2019-04-04T02:55:47.252Z,94574.00
2019-04-04T03:00:50.033Z,94573.00
2019-04-04T03:05:52.472Z,94573.00
2019-04-04T03:10:55.758Z,94567.00
2019-04-04T03:15:58.254Z,94558.00
2019-04-04T03:21:06.603Z,94551.00
2019-04-04T03:26:09.098Z,94554.00
2019-04-04T03:31:11.642Z,94539.00
2019-04-04T03:36:15.710Z,94534.00
2019-04-04T03:41:18.388Z,94508.00
2019-04-04T03:46:20.758Z,94514.00
2019-04-04T03:51:23.657Z,94495.00
2019-04-04T03:56:26.189Z,94499.00
2019-04-04T04:01:31.327Z,94489.00
2019-04-04T04:06:41.989Z,94493.00
2019-04-04T04:12:37.573Z,94475.00
2019-04-04T04:17:56.211Z,94565.00
2019-04-04T04:22:58.957Z,94468.00
2019-04-04T04:28:03.125Z,94463.00
2019-04-04T04:33:06.012Z,94460.00
2019-04-04T04:38:08.593Z,94463.00
2019-04-04T04:43:10.972Z,94453.00
2019-04-04T04:48:14.734Z,94453.00
2019-04-04T04:53:18.835Z,94440.00
2019-04-04T04:58:21.479Z,94433.00
2019-04-04T05:03:33.987Z,94427.00
2019-04-04T05:08:36.807Z,94405.00
2019-04-04T05:13:39.267Z,94417.00
2019-04-04T05:18:42.719Z,94395.00
2019-04-04T05:23:46.965Z,94408.00
2019-04-04T05:28:49.268Z,94409.00
2019-04-04T05:33:51.616Z,94386.00
2019-04-04T05:38:54.039Z,94387.00
2019-04-04T05:43:57.247Z,94377.00
2019-04-04T05:49:04.471Z,94376.00
2019-04-04T05:54:07.025Z,94369.00
2019-04-04T05:59:08.475Z,94353.00
2019-04-04T06:04:10.909Z,94338.00
2019-04-04T06:09:14.634Z,94336.00
2019-04-04T06:14:20.489Z,94340.00
2019-04-04T06:19:22.676Z,94326.00
2019-04-04T06:24:27.254Z,94327.00
2019-04-04T06:29:29.647Z,94314.00
2019-04-04T06:34:32.225Z,94290.00
2019-04-04T06:39:38.215Z,94291.00
2019-04-04T06:44:43.767Z,94285.00
2019-04-04T06:49:45.895Z,94277.00
2019-04-04T06:54:48.638Z,94262.00
2019-04-04T06:59:51.373Z,94262.00
2019-04-04T07:04:54.930Z,94256.00
2019-04-04T07:09:57.623Z,94248.00
2019-04-04T07:15:00.063Z,94233.00
2019-04-04T07:20:04.833Z,94233.00
2019-04-04T07:25:07.272Z,94236.00
2019-04-04T07:30:10.078Z,94226.00
2019-04-04T07:35:12.587Z,94239.00
2019-04-04T07:40:15.432Z,94233.00
2019-04-04T07:45:18.008Z,94233.00
2019-04-04T07:55:37.141Z,94214.00
2019-04-04T08:01:00.877Z,94227.00
2019-04-04T08:06:04.351Z,94228.00
2019-04-04T08:11:08.612Z,94230.00
2019-04-04T08:16:13.058Z,94224.00
2019-04-04T08:21:21.614Z,94228.00
2019-04-04T08:26:35.142Z,94214.00
2019-04-04T08:31:47.501Z,94222.00
2019-04-04T08:42:28.890Z,94225.00
2019-04-04T08:47:31.364Z,94216.00
2019-04-04T08:52:35.921Z,94228.00
2019-04-04T08:57:38.656Z,94210.00
2019-04-04T09:02:42.662Z,94219.00
2019-04-04T09:07:45.245Z,94219.00
2019-04-04T09:12:47.828Z,94221.00
2019-04-04T09:17:50.291Z,94224.00
2019-04-04T09:22:52.879Z,94216.00
2019-04-04T09:27:56.894Z,94205.00
2019-04-04T09:32:59.433Z,94217.00
2019-04-04T09:38:02.287Z,94202.00
2019-04-04T09:43:04.861Z,94208.00
2019-04-04T09:48:07.549Z,94205.00
2019-04-04T09:53:10.916Z,94212.00
2019-04-04T09:58:14.180Z,94212.00
2019-04-04T10:03:16.724Z,94207.00
2019-04-04T10:08:19.268Z,94206.00
2019-04-04T10:13:21.703Z,94211.00
2019-04-04T10:18:24.084Z,94218.00
2019-04-04T10:23:26.870Z,94221.00
2019-04-04T10:28:29.419Z,94222.00
2019-04-04T10:33:32.437Z,94230.00
2019-04-04T10:38:35.143Z,94237.00
2019-04-04T10:43:38.247Z,94239.00
2019-04-04T10:48:40.659Z,94238.00
2019-04-04T10:53:44.011Z,94226.00
2019-04-04T10:58:47.449Z,94229.00
2019-04-04T11:03:50.609Z,94221.00
2019-04-04T11:08:53.195Z,94220.00
2019-04-04T11:13:55.587Z,94216.00
2019-04-04T11:19:00.497Z,94220.00
2019-04-04T11:24:04.596Z,94219.00
2019-04-04T11:29:08.325Z,94211.00
2019-04-04T11:34:22.842Z,94216.00
2019-04-04T11:39:26.198Z,94211.00
2019-04-04T11:44:30.777Z,94214.00
2019-04-04T11:49:33.036Z,94211.00
2019-04-04T11:54:55.507Z,94211.00
2019-04-04T11:59:58.258Z,94230.00
2019-04-04T12:05:00.713Z,94221.00
2019-04-04T12:10:07.719Z,94231.00
2019-04-04T12:15:08.158Z,94219.00
2019-04-04T12:20:12.455Z,94214.00
2019-04-04T12:25:15.234Z,94216.00
2019-04-04T12:30:20.558Z,94219.00
2019-04-04T12:35:21.992Z,94213.00
2019-04-04T12:40:26.437Z,94210.00
2019-04-04T12:45:36.445Z,94214.00
2019-04-04T12:50:38.871Z,94210.00
2019-04-04T12:55:41.770Z,94198.00
2019-04-04T13:00:44.339Z,94211.00
2019-04-04T13:05:47.372Z,94210.00
2019-04-04T13:10:51.787Z,94218.00
2019-04-04T13:15:55.476Z,94222.00
2019-04-04T13:20:58.060Z,94214.00
2019-04-04T13:26:02.083Z,94215.00
2019-04-04T13:31:04.538Z,94223.00
2019-04-04T13:36:07.166Z,94221.00
2019-04-04T13:41:21.394Z,94218.00
2019-04-04T13:46:14.226Z,94150.00
2019-04-04T13:51:20.630Z,94246.00
2019-04-04T13:56:23.255Z,94237.00
2019-04-04T14:01:26.440Z,94247.00
2019-04-04T14:06:28.867Z,94255.00
2019-04-04T14:11:32.829Z,94246.00
2019-04-04T14:16:35.251Z,94247.00
2019-04-04T14:21:37.875Z,94261.00
2019-04-04T14:26:41.791Z,94248.00
2019-04-04T14:31:44.321Z,94252.00
2019-04-04T14:36:46.791Z,94265.00
2019-04-04T14:41:50.483Z,94271.00
2019-04-04T14:46:52.957Z,94274.00
2019-04-04T14:51:55.439Z,94290.00
2019-04-04T14:56:59.681Z,94304.00
2019-04-04T15:02:02.125Z,94311.00
2019-04-04T15:07:04.589Z,94332.00
2019-04-04T15:12:06.996Z,94323.00
2019-04-04T15:17:10.456Z,94320.00
2019-04-04T15:22:13.047Z,94346.00
2019-04-04T15:27:16.328Z,94383.00
2019-04-04T15:32:18.893Z,94398.00
2019-04-04T15:37:21.320Z,94372.00
2019-04-04T15:42:23.845Z,94413.00
2019-04-04T15:47:27.505Z,94393.00
2019-04-04T15:52:30.038Z,94402.00
2019-04-04T15:57:33.398Z,94429.00
2019-04-04T16:02:36.221Z,94443.00
2019-04-04T16:07:38.768Z,94449.00
2019-04-04T16:12:41.280Z,94453.00
2019-04-04T16:18:02.849Z,94469.00
2019-04-04T16:23:05.244Z,94477.00
2019-04-04T16:28:08.223Z,94470.00
2019-04-04T16:33:11.139Z,94479.00
2019-04-04T16:38:14.370Z,94495.00
2019-04-04T16:43:17.391Z,94493.00
2019-04-04T16:48:19.912Z,94501.00
2019-04-04T16:53:23.145Z,94516.00
2019-04-04T16:58:26.055Z,94532.00
2019-04-04T17:03:28.536Z,94527.00
2019-04-04T17:08:30.929Z,94557.00
2019-04-04T17:13:33.727Z,94561.00
2019-04-04T17:18:41.448Z,94581.00
2019-04-04T17:23:55.856Z,94596.00
2019-04-04T17:28:59.906Z,94594.00
2019-04-04T17:34:04.307Z,94605.00
2019-04-04T17:39:07.415Z,94625.00
2019-04-04T17:44:10.161Z,94643.00
2019-04-04T17:49:12.914Z,94658.00
2019-04-04T17:54:15.343Z,94673.00
2019-04-04T17:59:20.701Z,94697.00
2019-04-04T18:04:23.711Z,94709.00
2019-04-04T18:09:31.554Z,94713.00
2019-04-04T18:14:37.221Z,94730.00
2019-04-04T18:19:42.653Z,94726.00
2019-04-04T18:24:45.720Z,94752.00
2019-04-04T18:29:48.195Z,94745.00
2019-04-04T18:34:51.003Z,94762.00
2019-04-04T18:39:54.334Z,94768.00
2019-04-04T18:44:56.840Z,94771.00
2019-04-04T18:49:59.448Z,94746.00
2019-04-04T18:55:01.844Z,94742.00
2019-04-04T19:00:10.234Z,94754.00
2019-04-04T19:05:13.432Z,94749.00
2019-04-04T19:10:16.244Z,94765.00
2019-04-04T19:15:18.961Z,94785.00
2019-04-04T19:20:23.053Z,94798.00
2019-04-04T19:25:25.709Z,94844.00
2019-04-04T19:30:28.442Z,94840.00
2019-04-04T19:35:31.188Z,94875.00
2019-04-04T19:40:34.073Z,94898.00
2019-04-04T19:45:37.780Z,94893.00
2019-04-04T19:50:40.199Z,94891.00
2019-04-04T19:55:42.622Z,94863.00
2019-04-04T20:00:45.126Z,94864.00
2019-04-04T20:05:47.505Z,94862.00
2019-04-04T20:10:50.528Z,94851.00
2019-04-04T20:15:52.931Z,94857.00
2019-04-04T20:20:55.438Z,94873.00
2019-04-04T20:25:58.357Z,94892.00
2019-04-04T20:31:00.823Z,94892.00
2019-04-04T20:36:03.402Z,94897.00
2019-04-04T20:41:06.791Z,94901.00
2019-04-04T20:46:09.376Z,94904.00
2019-04-04T20:51:11.852Z,94905.00
2019-04-04T20:56:14.266Z,94921.00
2019-04-04T21:01:16.757Z,94921.00
2019-04-04T21:06:19.234Z,94915.00
2019-04-04T21:11:22.292Z,94921.00
2019-04-04T21:16:26.191Z,94934.00
2019-04-04T21:21:28.632Z,94937.00
2019-04-04T21:26:31.775Z,94956.00
2019-04-04T21:31:34.857Z,94953.00
2019-04-04T21:36:37.651Z,94963.00
2019-04-04T21:41:40.850Z,94980.00
2019-04-04T21:46:43.240Z,94987.00
2019-04-04T21:51:45.888Z,94974.00
2019-04-04T21:56:48.509Z,94980.00
2019-04-04T22:01:51.086Z,94991.00
2019-04-04T22:06:54.759Z,94994.00
2019-04-04T22:11:58.184Z,94991.00
2019-04-04T22:17:01.032Z,95011.00
2019-04-04T22:22:04.657Z,95004.00
2019-04-04T22:27:07.298Z,95002.00
2019-04-04T22:32:09.699Z,95005.00
2019-04-04T22:37:12.214Z,95002.00
2019-04-04T22:42:15.697Z,95005.00
2019-04-04T22:47:18.207Z,95008.00
2019-04-04T22:52:20.727Z,95007.00
2019-04-04T22:57:23.305Z,95005.00
2019-04-04T23:02:25.771Z,95004.00
2019-04-04T23:07:28.148Z,95008.00
2019-04-04T23:12:30.531Z,95004.00
2019-04-04T23:17:33.376Z,95006.00
2019-04-04T23:22:35.960Z,95005.00
2019-04-04T23:27:38.393Z,94998.00
2019-04-04T23:32:41.267Z,94998.00
2019-04-04T23:37:43.675Z,94995.00
2019-04-04T23:42:46.211Z,94998.00
2019-04-04T23:47:49.378Z,95010.00
2019-04-04T23:52:52.989Z,95023.00
2019-04-04T23:57:55.467Z,95021.00
